Time;durP1;ratioP1;P1;durP2;ratioP2;P2;SDS_P1;SDS_P2;PMS_P1;PMS_P2;Temp;Humidity;BMP_temperature;BMP_pressure;BME280_temperature;BME280_humidity;BME280_pressure;Samples;Min_cycle;Max_cycle;Signal;HPM_P1;HPM_P2
2022/06/16 00:01:24;;;;;;;4.60;3.00;;;;;;;25.32;46.53;101292.27;107288;1281;62066;-83
2022/06/16 00:03:50;;;;;;;6.00;3.20;;;;;;;25.32;46.51;101292.66;107273;1281;62109;-83
2022/06/16 00:06:16;;;;;;;4.50;3.00;;;;;;;25.32;46.61;101288.52;107049;1281;61935;-85
2022/06/16 00:08:41;;;;;;;4.70;3.30;;;;;;;25.32;46.57;101287.63;107233;1281;62073;-82
2022/06/16 00:11:16;;;;;;;4.70;3.20;;;;;;;25.32;46.67;101292.51;107234;1281;63191;-83
2022/06/16 00:13:42;;;;;;;5.50;3.60;;;;;;;25.32;46.60;101290.13;107014;1283;61976;-85
2022/06/16 00:16:08;;;;;;;5.60;3.70;;;;;;;25.32;46.66;101289.09;107243;1281;62063;-85
2022/06/16 00:18:33;;;;;;;6.40;4.20;;;;;;;25.32;46.72;101291.42;106942;1281;62165;-82
2022/06/16 00:20:59;;;;;;;7.30;3.70;;;;;;;25.32;46.74;101293.94;106963;1281;62084;-83
2022/06/16 00:23:25;;;;;;;5.30;3.80;;;;;;;25.31;46.62;101292.71;106936;1281;62200;-85
2022/06/16 00:25:50;;;;;;;4.60;3.60;;;;;;;25.31;46.70;101290.58;106940;1283;62087;-82
2022/06/16 00:28:16;;;;;;;5.40;4.30;;;;;;;25.31;46.65;101291.67;106909;1283;61971;-83
2022/06/16 00:30:43;;;;;;;5.20;4.00;;;;;;;25.31;46.76;101291.10;107234;1283;62680;-83
2022/06/16 00:33:08;;;;;;;5.90;4.50;;;;;;;25.31;46.73;101293.27;107022;1283;62149;-85
2022/06/16 00:35:34;;;;;;;6.20;4.50;;;;;;;25.30;46.78;101288.64;107227;1283;60875;-83
2022/06/16 00:38:00;;;;;;;5.40;4.20;;;;;;;25.31;46.76;101289.52;106612;1283;62193;-83
2022/06/16 00:40:25;;;;;;;6.40;4.20;;;;;;;25.31;46.80;101287.21;107232;1283;62041;-83
2022/06/16 00:42:51;;;;;;;5.90;4.30;;;;;;;25.30;46.74;101288.83;107275;1283;62162;-83
2022/06/16 00:45:49;;;;;;;6.20;4.40;;;;;;;25.31;46.79;101287.21;106889;1283;74920;-83
2022/06/16 00:48:21;;;;;;;;;;;;;;;25.30;46.73;101289.23;107090;1283;61363;-83
2022/06/16 00:50:52;;;;;;;6.80;4.30;;;;;;;25.27;46.79;101289.45;106892;1283;62055;-82
2022/06/16 00:53:18;;;;;;;5.80;4.20;;;;;;;25.28;46.82;101287.92;106645;1283;73859;-83
2022/06/16 00:55:44;;;;;;;5.50;4.40;;;;;;;25.28;46.83;101290.31;106912;1283;62053;-82
2022/06/16 00:58:10;;;;;;;6.30;4.00;;;;;;;25.28;46.92;101291.72;107260;1281;62071;-83
2022/06/16 01:00:45;;;;;;;6.00;4.00;;;;;;;25.28;46.98;101291.02;106967;1283;62049;-84
2022/06/16 01:03:11;;;;;;;5.90;4.20;;;;;;;25.28;46.94;101289.38;107221;1281;73650;-84
2022/06/16 01:05:37;;;;;;;5.60;4.10;;;;;;;25.28;46.98;101283.30;107245;1283;62208;-81
2022/06/16 01:08:04;;;;;;;6.00;4.30;;;;;;;25.27;46.88;101283.65;107293;1281;62047;-86
2022/06/16 01:10:37;;;;;;;7.30;4.70;;;;;;;25.28;46.91;101280.55;107209;1281;60040;-83
2022/06/16 01:16:06;;;;;;;6.50;4.50;;;;;;;25.27;47.10;101282.58;107264;1281;75146;-84
2022/06/16 01:18:47;;;;;;;5.80;4.20;;;;;;;25.28;46.97;101286.33;107231;1283;61935;-84
2022/06/16 01:21:23;;;;;;;7.10;4.40;;;;;;;25.28;46.89;101287.61;106642;1283;61907;-83
2022/06/16 01:24:01;;;;;;;5.40;4.10;;;;;;;25.27;47.12;101286.39;107146;1283;72572;-82
2022/06/16 01:26:48;;;;;;;5.10;3.90;;;;;;;25.28;47.06;101285.45;106967;1282;75637;-83
2022/06/16 01:29:27;;;;;;;5.40;4.50;;;;;;;25.27;47.02;101286.38;107196;1283;61976;-80
2022/06/16 01:31:58;;;;;;;;;;;;;;;25.27;47.09;101283.85;107259;1283;62056;-83
2022/06/16 01:34:36;;;;;;;5.70;3.80;;;;;;;25.25;46.97;101282.06;107218;1283;72909;-82
2022/06/16 01:37:16;;;;;;;5.80;4.30;;;;;;;25.25;47.05;101282.20;107197;1283;76571;-83
2022/06/16 01:39:55;;;;;;;5.40;3.80;;;;;;;25.25;47.10;101281.30;106930;1283;61926;-83
2022/06/16 01:42:24;;;;;;;5.40;4.10;;;;;;;25.25;47.04;101280.05;107237;1283;60794;-83
2022/06/16 01:45:09;;;;;;;6.60;3.90;;;;;;;25.25;47.10;101278.59;107061;1280;72600;-83
2022/06/16 01:47:35;;;;;;;5.60;4.00;;;;;;;25.25;47.07;101277.20;106892;1283;76680;-83
2022/06/16 01:50:04;;;;;;;6.10;3.90;;;;;;;25.25;47.07;101280.21;106657;1283;62162;-83
2022/06/16 01:53:03;;;;;;;5.70;4.20;;;;;;;25.25;47.10;101279.50;106887;1283;61924;-82
2022/06/16 01:55:33;;;;;;;;;;;;;;;25.25;47.19;101278.98;107169;1281;73095;-83
2022/06/16 01:58:04;;;;;;;5.60;4.00;;;;;;;25.23;47.20;101278.08;107045;1283;76507;-83
2022/06/16 02:00:31;;;;;;;5.00;3.70;;;;;;;25.24;47.04;101277.47;107174;1281;62080;-87
2022/06/16 02:03:09;;;;;;;5.30;4.00;;;;;;;25.24;47.16;101277.64;106914;1283;62059;-83
2022/06/16 02:05:54;;;;;;;5.40;3.90;;;;;;;25.24;47.19;101276.36;107287;1281;72768;-84
2022/06/16 02:08:24;;;;;;;6.70;4.10;;;;;;;25.24;47.19;101278.32;107235;1281;75661;-82
2022/06/16 02:11:04;;;;;;;5.40;3.90;;;;;;;25.24;47.32;101278.30;106940;1283;61987;-83
2022/06/16 02:13:32;;;;;;;6.00;4.20;;;;;;;25.24;47.25;101278.66;107237;1283;61976;-84
2022/06/16 02:16:09;;;;;;;5.60;4.00;;;;;;;25.24;47.22;101278.49;106926;1281;72756;-83
2022/06/16 02:18:37;;;;;;;4.90;4.00;;;;;;;25.24;47.18;101277.76;107051;1283;75252;-85
2022/06/16 02:21:13;;;;;;;5.00;4.00;;;;;;;25.25;47.27;101279.19;107245;1281;61875;-84
2022/06/16 02:23:40;;;;;;;6.50;3.60;;;;;;;25.25;47.30;101280.80;107052;1283;61961;-84
2022/06/16 02:26:06;;;;;;;6.00;3.90;;;;;;;25.25;47.22;101278.47;107042;1283;72661;-83
2022/06/16 02:28:50;;;;;;;6.00;4.00;;;;;;;25.25;47.34;101277.77;106917;1283;62078;-82
2022/06/16 02:31:35;;;;;;;6.00;4.10;;;;;;;25.24;47.25;101280.47;106891;1281;62163;-82
2022/06/16 02:34:01;;;;;;;5.10;3.80;;;;;;;25.24;47.37;101281.01;107279;1281;63029;-85
2022/06/16 02:36:49;;;;;;;6.20;3.90;;;;;;;25.24;47.28;101284.98;107232;1281;62063;-83
2022/06/16 02:39:21;;;;;;;4.90;3.40;;;;;;;25.24;47.32;101282.10;107005;1283;76615;-84
2022/06/16 02:42:05;;;;;;;6.20;4.20;;;;;;;25.24;47.36;101285.70;107221;1283;61955;-83
2022/06/16 02:44:39;;;;;;;6.30;3.90;;;;;;;25.24;47.31;101285.89;107206;1283;61932;-83
2022/06/16 02:47:10;;;;;;;5.50;3.70;;;;;;;25.24;47.37;101283.56;106919;1283;72591;-83
2022/06/16 02:49:51;;;;;;;5.30;3.70;;;;;;;25.24;47.36;101284.83;106921;1283;75294;-84
2022/06/16 02:52:27;;;;;;;4.90;3.70;;;;;;;25.24;47.33;101288.96;107212;1283;61983;-84
2022/06/16 02:54:58;;;;;;;5.40;3.80;;;;;;;25.24;47.31;101286.60;106871;1283;62007;-84
2022/06/16 02:57:33;;;;;;;4.90;3.50;;;;;;;25.24;47.38;101293.09;107033;1281;72841;-84
2022/06/16 03:00:03;;;;;;;5.60;3.60;;;;;;;25.24;47.53;101287.31;107248;1281;75477;-81
2022/06/16 03:02:28;;;;;;;4.50;3.60;;;;;;;25.24;47.39;101290.73;106664;1283;62105;-84
2022/06/16 03:04:56;;;;;;;6.60;4.20;;;;;;;25.24;47.59;101289.83;106811;1282;62073;-84
2022/06/16 03:07:22;;;;;;;5.30;3.60;;;;;;;25.25;47.58;101291.61;106949;1283;72787;-84
2022/06/16 03:09:49;;;;;;;5.70;3.70;;;;;;;25.25;47.56;101291.45;107190;1281;75512;-84
2022/06/16 03:12:15;;;;;;;4.90;3.60;;;;;;;25.24;47.54;101290.19;107227;1283;62072;-84
2022/06/16 03:14:41;;;;;;;5.30;3.90;;;;;;;25.25;47.39;101289.80;107211;1283;61961;-84
2022/06/16 03:17:07;;;;;;;4.80;3.60;;;;;;;25.25;47.38;101290.14;107228;1283;78515;-84
2022/06/16 03:19:32;;;;;;;5.20;3.40;;;;;;;25.25;47.39;101287.80;106945;1281;62056;-84
2022/06/16 03:21:58;;;;;;;6.10;4.00;;;;;;;25.25;47.42;101287.23;106988;1281;62045;-84
2022/06/16 03:24:24;;;;;;;6.80;4.00;;;;;;;25.24;47.50;101288.94;107275;1283;63337;-84
2022/06/16 03:26:49;;;;;;;5.10;3.80;;;;;;;25.25;47.44;101290.31;106937;1281;62104;-86
2022/06/16 03:29:15;;;;;;;5.20;3.80;;;;;;;25.25;47.50;101292.65;106932;1281;62650;-85
2022/06/16 03:31:41;;;;;;;6.10;3.80;;;;;;;25.25;47.39;101296.63;107171;1281;62072;-82
2022/06/16 03:34:07;;;;;;;7.20;3.90;;;;;;;25.25;47.45;101296.79;107218;1283;62254;-84
2022/06/16 03:36:33;;;;;;;5.60;3.90;;;;;;;25.25;47.44;101299.84;106953;1281;62064;-83
2022/06/16 03:38:58;;;;;;;6.00;4.10;;;;;;;25.25;47.55;101297.16;106908;1281;61962;-83
2022/06/16 03:41:24;;;;;;;6.90;4.30;;;;;;;25.25;47.43;101296.48;106923;1281;73849;-83
2022/06/16 03:43:50;;;;;;;5.60;4.10;;;;;;;25.25;47.46;101293.95;106938;1281;62027;-84
2022/06/16 03:46:16;;;;;;;8.10;4.60;;;;;;;25.24;47.50;101295.25;107053;1283;62070;-84
2022/06/16 03:48:42;;;;;;;7.00;4.30;;;;;;;25.24;47.37;101297.41;107185;1281;62111;-83
2022/06/16 03:51:09;;;;;;;6.10;4.10;;;;;;;25.24;47.35;101298.13;107209;1283;62034;-84
2022/06/16 03:53:35;;;;;;;8.40;4.90;;;;;;;25.24;47.13;101295.47;107177;1281;62113;-83
2022/06/16 03:56:01;;;;;;;30.90;6.40;;;;;;;25.23;47.00;101295.87;107053;1282;60861;-83
2022/06/16 03:58:27;;;;;;;19.60;6.40;;;;;;;25.21;46.99;101296.59;107102;1283;62162;-85
2022/06/16 04:00:52;;;;;;;13.60;6.30;;;;;;;25.16;46.98;101291.61;106866;1283;62091;-84
2022/06/16 04:06:02;;;;;;;8.80;5.50;;;;;;;25.07;46.57;101291.10;107135;1281;75581;-83
2022/06/16 04:08:28;;;;;;;14.10;6.30;;;;;;;25.03;46.50;101285.09;107230;1283;62046;-85
2022/06/16 04:10:53;;;;;;;10.80;6.10;;;;;;;25.00;46.37;101287.12;106980;1283;62212;-85
2022/06/16 04:13:20;;;;;;;11.30;6.30;;;;;;;24.98;46.18;101288.53;106859;1282;62057;-82
2022/06/16 04:15:46;;;;;;;11.30;6.70;;;;;;;24.98;46.07;101293.44;107021;1283;62081;-82
2022/06/16 04:18:11;;;;;;;13.90;6.00;;;;;;;24.97;45.96;101288.80;106965;1283;62087;-82
2022/06/16 04:20:37;;;;;;;13.90;6.20;;;;;;;24.98;45.96;101293.45;107007;1283;62070;-83
2022/06/16 04:23:03;;;;;;;10.90;6.40;;;;;;;24.97;45.85;101288.45;107127;1283;62036;-82
2022/06/16 04:25:30;;;;;;;12.10;6.40;;;;;;;24.97;45.87;101292.42;106945;1281;62425;-83
2022/06/16 04:28:01;;;;;;;11.30;6.30;;;;;;;24.97;45.73;101290.61;106829;1283;75350;-83
2022/06/16 04:30:27;;;;;;;13.60;6.70;;;;;;;24.97;45.72;101291.21;106755;1283;62528;-84
2022/06/16 04:32:52;;;;;;;10.40;6.30;;;;;;;24.96;45.57;101290.52;107061;1281;62079;-81
2022/06/16 04:35:18;;;;;;;10.60;6.60;;;;;;;24.96;45.58;101292.17;107014;1283;62437;-82
2022/06/16 04:37:43;;;;;;;10.40;6.00;;;;;;;24.95;45.42;101295.83;106875;1283;62086;-84
2022/06/16 04:40:09;;;;;;;10.60;6.00;;;;;;;24.94;45.45;101291.38;107214;1282;62102;-83
2022/06/16 04:42:36;;;;;;;13.70;6.30;;;;;;;24.94;45.34;101292.83;106879;1283;62177;-83
2022/06/16 04:45:02;;;;;;;11.50;6.40;;;;;;;24.94;45.21;101295.34;106968;1282;62075;-83
2022/06/16 04:47:28;;;;;;;11.90;6.40;;;;;;;24.94;45.29;101297.48;106922;1283;62228;-83
2022/06/16 04:49:54;;;;;;;10.30;6.00;;;;;;;24.91;45.24;101294.30;106729;1283;76883;-82
2022/06/16 04:52:19;;;;;;;13.30;6.20;;;;;;;24.92;45.35;101297.50;106925;1283;62163;-84
2022/06/16 04:54:46;;;;;;;13.40;6.30;;;;;;;24.92;45.20;101296.36;106935;1282;62076;-82
2022/06/16 04:57:12;;;;;;;10.30;6.10;;;;;;;24.94;45.08;101296.66;106830;1282;62060;-84
2022/06/16 04:59:37;;;;;;;14.30;6.30;;;;;;;24.95;45.12;101298.00;106657;1283;62188;-84
2022/06/16 05:02:03;;;;;;;8.90;5.90;;;;;;;24.97;45.14;101296.42;106684;1281;62814;-82
2022/06/16 05:04:29;;;;;;;8.60;5.60;;;;;;;25.00;44.99;101298.88;106872;1281;60521;-81
2022/06/16 05:06:55;;;;;;;12.20;6.00;;;;;;;25.02;45.00;101296.71;106734;1281;61424;-81
2022/06/16 05:09:22;;;;;;;13.80;6.20;;;;;;;25.03;44.90;101291.23;106934;1281;60077;-81
2022/06/16 05:11:47;;;;;;;17.50;6.60;;;;;;;25.05;44.88;101291.98;106678;1281;62069;-81
2022/06/16 05:14:13;;;;;;;10.70;6.10;;;;;;;25.05;44.79;101293.36;106667;1283;62378;-81
2022/06/16 05:16:38;;;;;;;11.00;6.40;;;;;;;25.06;44.79;101292.08;106917;1283;62047;-82
2022/06/16 05:19:04;;;;;;;11.20;6.10;;;;;;;25.05;44.85;101289.27;106913;1281;62087;-81
2022/06/16 05:21:29;;;;;;;10.90;6.30;;;;;;;25.05;44.71;101293.77;106959;1282;62047;-81
2022/06/16 05:23:56;;;;;;;14.20;6.40;;;;;;;25.05;44.73;101289.04;106915;1281;75503;-83
2022/06/16 05:26:21;;;;;;;11.60;6.10;;;;;;;25.07;44.62;101289.83;106929;1281;62050;-83
2022/06/16 05:28:47;;;;;;;9.90;6.00;;;;;;;25.08;44.54;101288.98;106588;1283;62177;-83
2022/06/16 05:31:12;;;;;;;10.00;5.70;;;;;;;25.09;44.62;101291.10;106732;1283;62104;-83
2022/06/16 05:33:38;;;;;;;9.30;6.30;;;;;;;25.11;44.54;101288.61;106775;1283;60101;-83
2022/06/16 05:36:06;;;;;;;11.60;6.30;;;;;;;25.12;44.56;101291.07;106794;1284;62297;-83
2022/06/16 05:38:32;;;;;;;10.70;6.40;;;;;;;25.11;44.55;101287.14;106879;1281;62089;-84
2022/06/16 05:40:59;;;;;;;8.50;5.60;;;;;;;25.12;44.48;101293.20;106734;1281;62594;-81
2022/06/16 05:43:25;;;;;;;12.70;5.50;;;;;;;25.14;44.56;101294.88;106944;1283;62137;-84
2022/06/16 05:45:51;;;;;;;11.40;5.90;;;;;;;25.15;44.54;101297.10;106598;1283;60194;-83
2022/06/16 05:48:17;;;;;;;9.30;5.50;;;;;;;25.16;44.56;101300.63;107198;1283;62049;-84
2022/06/16 05:50:43;;;;;;;12.30;5.60;;;;;;;25.17;44.48;101301.94;106797;1284;62209;-83
2022/06/16 05:53:09;;;;;;;12.20;6.30;;;;;;;25.18;44.41;101303.14;106737;1283;60263;-83
2022/06/16 05:55:35;;;;;;;13.10;7.30;;;;;;;25.17;44.42;101301.23;106926;1281;62118;-83
2022/06/16 05:58:01;;;;;;;10.50;6.50;;;;;;;25.15;44.33;101302.52;106820;1283;62229;-83
2022/06/16 06:00:30;;;;;;;11.70;6.20;;;;;;;25.14;44.28;101307.48;106928;1281;62046;-83
2022/06/16 06:02:59;;;;;;;9.20;5.60;;;;;;;25.12;44.28;101313.89;106947;1282;62082;-82
2022/06/16 06:05:26;;;;;;;8.60;5.40;;;;;;;25.13;44.24;101318.13;106920;1283;75693;-82
2022/06/16 06:18:49;;;;;;;13.40;5.80;;;;;;;25.18;44.45;101325.49;107127;1281;62039;-83
2022/06/16 06:21:15;;;;;;;12.50;6.20;;;;;;;25.16;44.39;101329.80;107181;1281;62080;-83
2022/06/16 06:23:40;;;;;;;11.10;5.60;;;;;;;25.14;44.45;101332.14;107171;1283;62141;-83
2022/06/16 06:26:06;;;;;;;10.30;5.60;;;;;;;25.11;44.52;101328.18;106924;1283;62029;-82
2022/06/16 06:28:32;;;;;;;9.10;5.00;;;;;;;25.10;44.47;101332.99;107053;1281;62109;-83
2022/06/16 06:30:57;;;;;;;8.90;4.90;;;;;;;25.11;44.55;101330.20;106894;1283;62148;-81
2022/06/16 06:33:23;;;;;;;8.50;4.90;;;;;;;25.13;44.63;101331.84;107097;1283;62046;-84
2022/06/16 06:35:48;;;;;;;10.50;5.60;;;;;;;25.15;44.62;101328.59;107014;1282;62078;-82
2022/06/16 06:38:14;;;;;;;12.50;5.80;;;;;;;25.17;44.68;101327.73;107104;1283;62055;-83
2022/06/16 06:40:40;;;;;;;9.80;5.40;;;;;;;25.18;44.57;101324.61;106832;1283;62102;-86
2022/06/16 06:43:06;;;;;;;10.80;5.40;;;;;;;25.16;44.57;101324.36;107111;1281;62069;-82
2022/06/16 06:45:32;;;;;;;12.50;6.50;;;;;;;25.15;44.51;101320.69;106986;1283;62039;-82
2022/06/16 06:47:58;;;;;;;11.70;6.40;;;;;;;25.15;44.57;101322.66;107039;1281;73674;-82
2022/06/16 06:50:25;;;;;;;11.10;6.30;;;;;;;25.14;44.55;101316.42;106594;1283;62051;-82
2022/06/16 06:52:51;;;;;;;10.20;5.50;;;;;;;25.13;44.56;101318.71;106891;1281;62097;-81
2022/06/16 06:55:17;;;;;;;9.80;5.30;;;;;;;25.12;44.53;101315.38;106593;1283;62053;-82
2022/06/16 06:57:42;;;;;;;9.60;5.90;;;;;;;25.13;44.56;101317.25;106926;1281;62157;-82
2022/06/16 07:00:09;;;;;;;8.90;5.70;;;;;;;25.14;44.55;101319.30;106798;1281;62075;-82
2022/06/16 07:02:34;;;;;;;10.10;6.20;;;;;;;25.13;44.51;101321.20;106960;1281;62022;-82
2022/06/16 07:05:00;;;;;;;10.80;5.90;;;;;;;25.12;44.37;101324.55;106929;1281;62087;-82
2022/06/16 07:07:25;;;;;;;13.10;5.80;;;;;;;25.11;44.51;101323.86;107055;1283;62207;-83
2022/06/16 07:09:51;;;;;;;7.00;4.90;;;;;;;25.14;44.45;101319.02;106655;1284;62085;-83
2022/06/16 07:12:17;;;;;;;9.00;4.40;;;;;;;25.17;44.60;101320.55;106939;1283;62100;-84
2022/06/16 07:14:44;;;;;;;7.80;4.60;;;;;;;25.20;44.45;101318.33;106947;1283;62018;-83
2022/06/16 07:17:10;;;;;;;8.50;4.60;;;;;;;25.22;44.34;101310.23;107219;1283;62046;-84
2022/06/16 07:19:36;;;;;;;9.60;4.70;;;;;;;25.22;44.26;101311.98;106918;1284;62103;-84
2022/06/16 07:22:04;;;;;;;7.90;4.60;;;;;;;25.24;44.36;101310.91;106948;1281;62208;-82
2022/06/16 07:24:30;;;;;;;10.90;5.00;;;;;;;25.25;44.24;101310.87;106985;1281;62191;-82
2022/06/16 07:26:55;;;;;;;11.80;4.90;;;;;;;25.24;44.12;101310.75;107175;1281;62053;-82
2022/06/16 07:29:21;;;;;;;8.10;4.20;;;;;;;25.25;44.10;101308.34;107189;1281;62044;-83
2022/06/16 07:31:47;;;;;;;8.60;4.90;;;;;;;25.26;44.09;101309.46;107118;1281;62222;-83
2022/06/16 07:34:12;;;;;;;7.20;4.80;;;;;;;25.27;43.99;101306.17;107213;1283;62168;-82
2022/06/16 07:36:39;;;;;;;10.50;4.50;;;;;;;25.25;43.89;101306.70;107087;1283;61926;-82
2022/06/16 07:39:05;;;;;;;10.90;4.70;;;;;;;25.26;43.73;101306.13;107128;1283;62047;-82
2022/06/16 07:41:36;;;;;;;10.00;4.90;;;;;;;25.26;43.78;101307.34;106741;1281;62016;-81
2022/06/16 07:44:10;;;;;;;8.30;4.70;;;;;;;25.29;43.58;101308.61;107069;1283;75484;-82
2022/06/16 07:46:36;;;;;;;9.40;4.30;;;;;;;25.31;43.83;101309.02;107196;1281;62055;-83
2022/06/16 07:49:04;;;;;;;10.80;4.80;;;;;;;25.32;43.61;101305.61;107029;1281;60534;-83
2022/06/16 07:51:29;;;;;;;9.70;4.90;;;;;;;25.30;43.34;101307.77;106723;1283;72511;-81
2022/06/16 07:53:55;;;;;;;7.00;4.70;;;;;;;25.30;43.21;101306.04;106938;1281;62203;-82
2022/06/16 07:56:21;;;;;;;8.20;4.50;;;;;;;25.30;43.19;101304.76;107086;1281;62024;-82
2022/06/16 07:58:47;;;;;;;8.80;4.30;;;;;;;25.29;43.05;101308.95;106800;1281;62568;-82
2022/06/16 08:01:13;;;;;;;8.90;4.20;;;;;;;25.30;42.91;101313.91;106885;1281;63595;-82
2022/06/16 08:03:38;;;;;;;6.80;4.00;;;;;;;25.32;43.03;101310.30;106683;1283;60645;-82
2022/06/16 08:06:13;;;;;;;8.30;4.10;;;;;;;25.35;43.09;101309.88;107046;1282;62106;-81
2022/06/16 08:08:39;;;;;;;6.20;4.10;;;;;;;25.39;42.96;101308.17;107639;1283;60088;-81
2022/06/16 08:11:05;;;;;;;9.20;4.30;;;;;;;25.41;43.09;101308.48;107565;1283;60483;-81
2022/06/16 08:13:31;;;;;;;7.70;3.80;;;;;;;25.44;43.22;101311.17;107591;1282;60251;-82
2022/06/16 08:15:56;;;;;;;7.50;3.60;;;;;;;25.47;43.05;101306.27;107491;1283;60072;-82
2022/06/16 08:18:23;;;;;;;7.50;3.70;;;;;;;25.48;42.81;101306.55;107665;1283;59904;-82
2022/06/16 08:20:49;;;;;;;10.00;4.10;;;;;;;25.50;42.64;101304.42;107287;1284;60019;-82
2022/06/16 08:23:15;;;;;;;12.40;4.00;;;;;;;25.52;42.69;101308.16;107573;1283;59905;-82
2022/06/16 08:25:42;;;;;;;8.30;3.70;;;;;;;25.54;42.56;101308.54;107703;1281;60311;-81
2022/06/16 08:28:09;;;;;;;9.00;3.60;;;;;;;25.56;42.56;101311.44;106649;1283;75423;-81
2022/06/16 08:30:35;;;;;;;7.70;3.80;;;;;;;25.56;42.51;101313.42;106951;1283;61985;-82
2022/06/16 08:33:02;;;;;;;6.50;3.90;;;;;;;25.54;42.21;101315.17;106782;1281;62753;-82
2022/06/16 08:35:27;;;;;;;6.50;3.90;;;;;;;25.54;42.30;101312.35;107688;1281;59867;-83
2022/06/16 08:37:53;;;;;;;8.00;4.00;;;;;;;25.55;42.30;101313.13;107927;1281;60269;-83
2022/06/16 08:40:19;;;;;;;6.50;3.90;;;;;;;25.56;42.12;101310.36;106813;1281;62158;-82
2022/06/16 08:42:51;;;;;;;6.20;3.60;;;;;;;25.56;42.18;101308.37;106644;1283;62107;-82
2022/06/16 08:45:20;;;;;;;6.90;3.80;;;;;;;25.57;42.19;101309.21;106962;1283;72790;-82
2022/06/16 08:48:19;;;;;;;6.50;4.00;;;;;;;25.57;42.01;101307.38;106934;1283;76604;-82
2022/06/16 08:50:47;;;;;;;7.20;4.10;;;;;;;25.56;41.75;101303.32;106980;1283;61990;-82
2022/06/16 08:53:19;;;;;;;8.40;3.80;;;;;;;25.56;41.71;101308.36;107017;1281;62356;-82
2022/06/16 08:55:56;;;;;;;8.10;3.70;;;;;;;25.55;41.48;101307.89;107255;1282;72600;-81
2022/06/16 08:58:42;;;;;;;7.40;3.70;;;;;;;25.55;41.24;101305.61;107659;1281;75522;-81
2022/06/16 09:01:31;;;;;;;7.70;3.60;;;;;;;25.54;41.09;101303.48;106983;1283;62091;-81
2022/06/16 09:04:19;;;;;;;9.70;3.90;;;;;;;25.52;40.96;101302.20;106990;1281;62056;-81
2022/06/16 09:07:07;;;;;;;6.30;3.70;;;;;;;25.48;40.81;101297.46;107166;1281;71715;-84
2022/06/16 09:12:38;;;;;;;4.90;3.00;;;;;;;25.47;41.09;101292.20;107007;1281;61942;-81
2022/06/16 09:15:41;;;;;;;11.30;3.60;;;;;;;25.47;41.09;101290.23;106830;1282;62145;-83
2022/06/16 09:18:07;;;;;;;6.00;3.10;;;;;;;25.47;41.13;101290.42;106968;1281;73520;-83
2022/06/16 09:20:36;;;;;;;5.00;3.50;;;;;;;25.48;41.23;101291.02;107053;1281;76615;-82
2022/06/16 09:23:21;;;;;;;6.00;3.70;;;;;;;25.49;41.38;101287.00;107070;1281;62190;-82
2022/06/16 09:26:07;;;;;;;5.90;3.40;;;;;;;25.49;41.52;101280.89;107018;1281;62158;-83
2022/06/16 09:28:50;;;;;;;7.10;3.80;;;;;;;25.49;41.44;101286.61;106203;1289;74090;-82
2022/06/16 09:31:24;;;;;;;10.20;3.80;;;;;;;25.49;41.65;101285.20;106045;1289;75427;-82
2022/06/16 09:33:55;;;;;;;7.60;3.70;;;;;;;25.46;41.47;101282.87;106202;1289;62093;-82
2022/06/16 09:36:27;;;;;;;5.40;3.30;;;;;;;25.41;41.25;101279.34;106036;1291;61866;-84
2022/06/16 09:39:20;;;;;;;6.50;3.30;;;;;;;25.39;41.32;101277.71;106072;1290;72718;-83
2022/06/16 09:44:57;;;;;;;6.10;3.20;;;;;;;25.41;41.60;101273.73;106110;1289;64052;-83
2022/06/16 09:47:36;;;;;;;5.10;3.30;;;;;;;25.43;41.53;101271.80;106108;1289;62204;-86
2022/06/16 09:50:06;;;;;;;4.70;3.00;;;;;;;25.45;41.64;101270.01;105871;1289;72733;-83
2022/06/16 09:52:48;;;;;;;5.00;3.20;;;;;;;25.46;41.72;101269.73;106045;1289;75430;-84
2022/06/16 09:55:30;;;;;;;5.00;3.30;;;;;;;25.48;41.87;101263.32;106199;1289;62193;-84
2022/06/16 09:58:00;;;;;;;5.10;3.30;;;;;;;25.48;41.86;101264.86;106231;1289;62094;-82
2022/06/16 10:00:33;;;;;;;5.80;3.30;;;;;;;25.49;41.88;101264.27;106175;1290;73636;-82
2022/06/16 10:03:01;;;;;;;6.30;3.30;;;;;;;25.50;42.04;101264.05;106074;1289;75480;-83
2022/06/16 10:05:58;;;;;;;4.70;3.10;;;;;;;25.51;41.85;101265.38;105928;1284;61987;-83
2022/06/16 10:08:39;;;;;;;6.30;3.40;;;;;;;25.52;41.98;101264.56;106672;1283;62105;-82
2022/06/16 10:11:09;;;;;;;7.40;3.20;;;;;;;25.53;42.10;101264.45;106789;1284;72784;-82
2022/06/16 10:13:50;;;;;;;7.00;3.20;;;;;;;25.53;42.22;101267.89;106966;1281;74485;-83
2022/06/16 10:16:18;;;;;;;6.40;3.20;;;;;;;25.54;42.19;101267.08;106930;1283;62792;-81
2022/06/16 10:18:44;;;;;;;4.70;3.50;;;;;;;25.54;42.11;101261.84;106889;1283;62282;-83
2022/06/16 10:21:10;;;;;;;6.50;3.50;;;;;;;25.55;42.18;101263.41;107051;1281;62045;-82
2022/06/16 10:23:43;;;;;;;5.60;3.00;;;;;;;25.55;42.32;101261.27;107119;1281;62112;-81
2022/06/16 10:26:09;;;;;;;4.90;3.10;;;;;;;25.56;42.19;101258.52;106838;1284;61922;-82
2022/06/16 10:28:38;;;;;;;5.50;3.30;;;;;;;25.56;42.16;101257.77;106886;1281;62181;-82
2022/06/16 10:31:04;;;;;;;4.70;3.10;;;;;;;25.56;42.24;101259.02;106923;1283;72673;-81
2022/06/16 10:33:35;;;;;;;4.80;3.20;;;;;;;25.56;42.18;101253.03;106780;1283;61922;-82
2022/06/16 10:36:18;;;;;;;7.00;3.50;;;;;;;25.57;42.14;101254.07;106894;1284;62118;-81
2022/06/16 10:39:03;;;;;;;5.10;3.20;;;;;;;25.57;42.35;101251.17;106761;1284;61970;-83
2022/06/16 10:41:32;;;;;;;5.70;3.30;;;;;;;25.58;42.28;101248.75;106997;1283;73794;-83
2022/06/16 10:44:00;;;;;;;6.10;3.40;;;;;;;25.58;42.38;101248.53;106931;1281;75416;-83
2022/06/16 10:46:36;;;;;;;5.00;3.30;;;;;;;25.58;42.27;101245.80;107051;1281;62127;-83
2022/06/16 10:49:04;;;;;;;5.10;3.10;;;;;;;25.59;42.32;101238.04;106903;1281;63413;-83
2022/06/16 10:51:32;;;;;;;7.60;3.40;;;;;;;25.58;42.22;101240.23;107059;1281;73054;-83
2022/06/16 10:54:12;;;;;;;5.40;3.20;;;;;;;25.59;42.29;101235.17;106897;1281;75485;-83
2022/06/16 10:56:40;;;;;;;6.90;3.50;;;;;;;25.58;42.41;101233.55;106738;1282;62075;-83
2022/06/16 10:59:27;;;;;;;4.90;3.10;;;;;;;25.58;42.38;101228.90;106558;1286;62194;-83
2022/06/16 11:02:01;;;;;;;6.10;3.10;;;;;;;25.59;42.53;101229.55;106705;1281;71562;-83
2022/06/16 11:04:39;;;;;;;5.00;2.90;;;;;;;25.58;42.24;101223.16;107121;1281;76415;-83
2022/06/16 11:07:05;;;;;;;4.70;3.10;;;;;;;25.58;42.45;101224.80;107086;1281;61942;-85
2022/06/16 11:09:32;;;;;;;6.90;3.10;;;;;;;25.57;42.59;101221.19;107135;1281;62078;-83
2022/06/16 11:12:24;;;;;;;6.60;3.10;;;;;;;25.57;42.54;101220.33;107027;1281;61945;-84
2022/06/16 11:15:29;;;;;;;5.50;3.00;;;;;;;25.57;42.48;101218.36;106609;1287;75311;-84
2022/06/16 11:17:57;;;;;;;5.30;2.90;;;;;;;25.56;42.44;101215.73;105818;1294;61929;-84
2022/06/16 11:20:43;;;;;;;9.60;3.50;;;;;;;25.56;42.43;101216.48;105689;1293;62039;-83
2022/06/16 11:23:21;;;;;;;5.50;3.20;;;;;;;25.56;42.49;101214.52;105180;1300;72823;-83
2022/06/16 11:25:48;;;;;;;5.40;3.20;;;;;;;25.56;42.53;101214.47;105240;1300;76627;-83
2022/06/16 11:28:15;;;;;;;5.40;3.40;;;;;;;25.56;42.45;101210.71;105114;1300;62196;-83
2022/06/16 11:30:49;;;;;;;5.00;3.20;;;;;;;25.55;42.53;101209.48;105072;1300;62065;-85
2022/06/16 11:36:40;;;;;;;5.30;3.10;;;;;;;25.55;42.53;101205.88;105132;1299;76446;-83
2022/06/16 11:40:04;;;;;;;6.10;3.20;;;;;;;25.56;42.61;101201.37;105204;1300;62830;-82
2022/06/16 11:42:35;;;;;;;5.40;3.30;;;;;;;25.54;42.48;101197.48;104782;1306;62155;-83
2022/06/16 11:45:05;;;;;;;5.30;3.30;;;;;;;25.55;42.48;101199.41;104789;1306;71915;-83
2022/06/16 11:48:01;;;;;;;5.10;3.20;;;;;;;25.56;42.57;101199.17;104941;1303;76546;-84
2022/06/16 11:50:33;;;;;;;4.60;3.00;;;;;;;25.55;42.61;101194.88;104948;1303;62534;-83
2022/06/16 11:52:59;;;;;;;5.30;3.00;;;;;;;25.55;42.68;101190.05;105230;1297;62090;-83
2022/06/16 11:55:45;;;;;;;5.70;3.20;;;;;;;25.55;42.55;101192.94;105448;1295;62333;-83
2022/06/16 11:58:15;;;;;;;4.50;3.20;;;;;;;25.55;42.74;101190.01;105493;1295;75443;-84